createdAt,value
2023-03-28T00:02:06.028Z,36.65
2023-03-28T00:04:32.470Z,36.57
2023-03-28T00:06:58.831Z,36.48
2023-03-28T00:09:25.253Z,36.53
2023-03-28T00:11:51.625Z,36.52
2023-03-28T00:14:18.019Z,36.51
2023-03-28T00:16:44.379Z,36.46
2023-03-28T00:19:10.775Z,36.45
2023-03-28T00:21:37.200Z,36.39
2023-03-28T00:24:03.599Z,36.40
2023-03-28T00:26:30.017Z,36.33
2023-03-28T00:28:56.434Z,36.32
2023-03-28T00:31:22.860Z,36.26
2023-03-28T00:33:49.197Z,36.26
2023-03-28T00:36:15.551Z,36.27
2023-03-28T00:38:41.944Z,36.28
2023-03-28T00:41:08.330Z,36.26
2023-03-28T00:43:34.736Z,36.29
2023-03-28T00:46:08.991Z,36.22
2023-03-28T00:48:27.525Z,36.21
2023-03-28T00:50:53.891Z,36.25
2023-03-28T00:53:20.301Z,36.22
2023-03-28T00:55:46.654Z,36.17
2023-03-28T00:58:13.072Z,36.11
2023-03-28T01:00:39.453Z,36.08
2023-03-28T01:03:05.918Z,36.05
2023-03-28T01:05:32.277Z,36.07
2023-03-28T01:07:58.636Z,36.05
2023-03-28T01:10:24.985Z,36.04
2023-03-28T01:12:51.421Z,36.07
2023-03-28T01:15:17.817Z,35.98
2023-03-28T01:17:44.221Z,36.08
2023-03-28T01:20:10.553Z,35.96
2023-03-28T01:22:36.970Z,36.08
2023-03-28T01:25:03.315Z,35.95
2023-03-28T01:27:29.744Z,35.98
2023-03-28T01:29:56.076Z,36.00
2023-03-28T01:32:22.528Z,35.99
2023-03-28T01:34:48.837Z,35.91
2023-03-28T01:37:15.284Z,35.90
2023-03-28T01:39:41.647Z,35.80
2023-03-28T01:42:08.040Z,35.75
2023-03-28T01:44:34.422Z,35.72
2023-03-28T01:47:00.820Z,35.72
2023-03-28T01:49:27.191Z,35.70
2023-03-28T01:51:53.588Z,35.63
2023-03-28T01:54:19.956Z,35.64
2023-03-28T01:56:46.506Z,35.56
2023-03-28T01:59:12.705Z,35.51
2023-03-28T02:01:39.186Z,35.50
2023-03-28T02:04:05.482Z,35.49
2023-03-28T02:06:31.882Z,35.43
2023-03-28T02:08:58.253Z,35.29
2023-03-28T02:11:24.663Z,35.00
2023-03-28T02:13:51.017Z,34.85
2023-03-28T02:16:17.429Z,34.66
2023-03-28T02:18:43.813Z,34.54
2023-03-28T02:21:10.197Z,34.33
2023-03-28T02:23:36.548Z,34.30
2023-03-28T02:26:02.949Z,34.29
2023-03-28T02:28:29.311Z,34.43
2023-03-28T02:30:55.775Z,34.74
2023-03-28T02:33:22.122Z,35.72
2023-03-28T02:35:48.661Z,35.93
2023-03-28T02:38:14.993Z,35.85
2023-03-28T02:40:41.416Z,36.55
2023-03-28T02:43:07.775Z,36.33
2023-03-28T02:45:34.273Z,36.37
2023-03-28T02:48:00.681Z,36.46
2023-03-28T02:50:27.013Z,36.61
2023-03-28T02:52:53.392Z,36.68
2023-03-28T02:55:19.801Z,36.70
2023-03-28T02:57:46.190Z,36.43
2023-03-28T03:00:12.703Z,36.19
2023-03-28T03:02:39.038Z,35.86
2023-03-28T03:05:05.382Z,35.58
2023-03-28T03:07:31.732Z,35.38
2023-03-28T03:09:58.128Z,35.14
2023-03-28T03:12:24.500Z,34.93
2023-03-28T03:14:50.963Z,34.84
2023-03-28T03:17:17.304Z,34.76
2023-03-28T03:19:43.694Z,34.91
2023-03-28T03:22:10.063Z,35.03
2023-03-28T03:24:36.472Z,35.22
2023-03-28T03:27:02.868Z,35.33
2023-03-28T03:29:39.469Z,35.05
2023-03-28T03:31:55.598Z,34.75
2023-03-28T03:34:21.950Z,34.79
2023-03-28T03:36:48.338Z,34.89
2023-03-28T03:39:14.698Z,35.31
2023-03-28T03:41:41.104Z,35.68
2023-03-28T03:44:07.485Z,35.85
2023-03-28T03:46:33.959Z,36.00
2023-03-28T03:49:00.270Z,35.88
2023-03-28T03:51:26.680Z,36.11
2023-03-28T03:53:53.056Z,36.23
2023-03-28T03:56:19.439Z,35.91
2023-03-28T03:58:45.827Z,35.83
2023-03-28T04:01:12.229Z,35.73
2023-03-28T04:03:38.601Z,35.73
2023-03-28T04:06:05.008Z,35.38
2023-03-28T04:08:31.364Z,35.04
2023-03-28T04:10:57.790Z,34.91
2023-03-28T04:13:24.124Z,34.97
2023-03-28T04:15:50.556Z,34.99
2023-03-28T04:18:16.934Z,39.70
2023-03-28T04:20:43.347Z,35.85
2023-03-28T04:23:09.680Z,35.47
2023-03-28T04:25:36.069Z,35.52
2023-03-28T04:28:02.414Z,35.31
2023-03-28T04:30:28.813Z,35.42
2023-03-28T04:32:55.180Z,35.11
2023-03-28T04:35:21.638Z,35.05
2023-03-28T04:37:47.954Z,35.01
2023-03-28T04:40:50.369Z,35.04
2023-03-28T04:43:16.781Z,34.77
2023-03-28T04:45:43.167Z,34.69
2023-03-28T04:48:09.612Z,34.77
2023-03-28T04:50:36.079Z,34.94
2023-03-28T04:53:02.375Z,34.97
2023-03-28T04:55:28.731Z,35.10
2023-03-28T04:57:55.138Z,35.12
2023-03-28T05:00:21.509Z,35.07
2023-03-28T05:02:48.024Z,35.07
2023-03-28T05:05:14.264Z,34.98
2023-03-28T05:07:40.711Z,34.90
2023-03-28T05:10:07.050Z,34.95
2023-03-28T05:12:33.440Z,34.81
2023-03-28T05:14:59.818Z,34.81
2023-03-28T05:17:26.269Z,34.77
2023-03-28T05:19:52.626Z,34.86
2023-03-28T05:22:19.022Z,34.87
2023-03-28T05:24:45.390Z,34.87
2023-03-28T05:27:11.901Z,34.99
2023-03-28T05:29:38.278Z,35.18
2023-03-28T05:32:04.757Z,35.24
2023-03-28T05:34:31.056Z,35.18
2023-03-28T05:36:57.471Z,34.97
2023-03-28T05:39:23.839Z,34.96
2023-03-28T05:41:50.252Z,34.87
2023-03-28T05:44:18.679Z,34.60
2023-03-28T05:46:43.004Z,34.55
2023-03-28T05:49:09.347Z,34.56
2023-03-28T05:51:35.799Z,34.58
2023-03-28T05:54:02.168Z,34.84
2023-03-28T05:56:28.580Z,34.63
2023-03-28T05:58:54.945Z,34.77
2023-03-28T06:01:22.516Z,35.00
2023-03-28T06:03:47.772Z,35.00
2023-03-28T06:06:14.076Z,34.97
2023-03-28T06:08:40.470Z,34.89
2023-03-28T06:11:06.899Z,34.92
2023-03-28T06:13:33.258Z,35.01
2023-03-28T06:15:59.717Z,34.89
2023-03-28T06:18:26.095Z,34.64
2023-03-28T06:20:52.496Z,34.63
2023-03-28T06:23:18.871Z,34.44
2023-03-28T06:25:45.294Z,34.33
2023-03-28T06:28:11.685Z,34.44
2023-03-28T06:30:38.168Z,34.46
2023-03-28T06:33:04.588Z,34.45
2023-03-28T06:35:30.968Z,34.49
2023-03-28T06:37:57.352Z,34.51
2023-03-28T06:40:23.848Z,34.47
2023-03-28T06:42:50.203Z,34.49
2023-03-28T06:45:16.612Z,34.54
2023-03-28T06:47:43.013Z,34.69
2023-03-28T06:50:09.421Z,34.73
2023-03-28T06:52:35.777Z,34.76
2023-03-28T06:55:02.234Z,34.88
2023-03-28T06:57:28.536Z,35.00
2023-03-28T06:59:54.975Z,34.99
2023-03-28T07:02:21.363Z,35.16
2023-03-28T07:04:47.720Z,34.85
2023-03-28T07:07:14.091Z,34.71
2023-03-28T07:09:40.499Z,34.74
2023-03-28T07:12:06.954Z,34.47
2023-03-28T07:14:33.291Z,34.47
2023-03-28T07:16:59.666Z,34.67
2023-03-28T07:19:26.047Z,34.64
2023-03-28T07:21:52.398Z,34.51
2023-03-28T07:24:18.801Z,34.59
2023-03-28T07:26:45.142Z,34.38
2023-03-28T07:29:11.647Z,34.59
2023-03-28T07:31:38.029Z,34.44
2023-03-28T07:34:04.411Z,34.49
2023-03-28T07:36:30.757Z,34.22
2023-03-28T07:38:57.130Z,34.64
2023-03-28T07:41:23.475Z,34.75
2023-03-28T07:43:49.888Z,34.40
2023-03-28T07:46:16.378Z,34.54
2023-03-28T07:48:42.640Z,34.49
2023-03-28T07:51:08.999Z,34.52
2023-03-28T07:53:35.389Z,33.69
2023-03-28T07:56:01.748Z,33.62
2023-03-28T07:58:28.139Z,33.62
2023-03-28T08:00:54.484Z,33.85
2023-03-28T08:03:20.929Z,33.48
2023-03-28T08:05:47.269Z,34.07
2023-03-28T08:08:13.765Z,33.80
2023-03-28T08:10:40.104Z,33.75
2023-03-28T08:13:06.510Z,33.82
2023-03-28T08:15:32.907Z,34.13
2023-03-28T08:17:59.303Z,34.50
2023-03-28T08:20:25.616Z,34.64
2023-03-28T08:22:52.013Z,34.66
2023-03-28T08:25:18.343Z,34.66
2023-03-28T08:27:45.765Z,34.53
2023-03-28T08:30:12.133Z,34.67
2023-03-28T08:32:38.576Z,34.43
2023-03-28T08:35:04.867Z,34.20
2023-03-28T08:37:31.248Z,34.01
2023-03-28T08:39:57.608Z,34.05
2023-03-28T08:42:24.001Z,34.10
2023-03-28T08:44:50.388Z,34.16
2023-03-28T08:47:16.757Z,34.33
2023-03-28T08:49:43.189Z,34.40
2023-03-28T08:52:09.558Z,34.41
2023-03-28T08:54:35.901Z,34.14
2023-03-28T08:57:02.373Z,34.07
2023-03-28T08:59:28.706Z,33.84
2023-03-28T09:01:55.136Z,34.65
2023-03-28T09:04:21.529Z,33.80
2023-03-28T09:06:47.849Z,34.66
2023-03-28T09:09:14.191Z,34.33
2023-03-28T09:11:40.572Z,34.76
2023-03-28T09:14:06.912Z,34.82
2023-03-28T09:16:33.363Z,34.68
2023-03-28T09:18:59.676Z,34.54
2023-03-28T09:21:26.054Z,34.79
2023-03-28T09:23:52.415Z,34.58
2023-03-28T09:26:18.834Z,34.17
2023-03-28T09:28:45.194Z,33.71
2023-03-28T09:31:11.583Z,33.57
2023-03-28T09:33:37.968Z,33.57
2023-03-28T09:36:04.369Z,34.15
2023-03-28T09:38:30.669Z,33.94
2023-03-28T09:40:57.198Z,35.12
2023-03-28T09:43:23.432Z,33.84
2023-03-28T09:45:49.844Z,33.88
2023-03-28T09:48:19.011Z,33.88
2023-03-28T09:50:42.569Z,34.19
2023-03-28T09:53:08.919Z,34.19
2023-03-28T09:55:35.783Z,34.03
2023-03-28T09:58:01.706Z,34.19
2023-03-28T10:00:28.089Z,33.98
2023-03-28T10:02:54.460Z,34.58
2023-03-28T10:05:20.847Z,34.05
2023-03-28T10:07:47.203Z,34.05
2023-03-28T10:10:13.632Z,34.06
2023-03-28T10:12:39.986Z,33.71
2023-03-28T10:15:06.380Z,33.40
2023-03-28T10:17:34.221Z,33.40
2023-03-28T10:19:59.116Z,33.46
2023-03-28T10:22:25.524Z,33.54
2023-03-28T10:24:51.883Z,33.44
2023-03-28T10:27:18.236Z,32.83
2023-03-28T10:29:44.886Z,32.83
2023-03-28T10:32:11.242Z,34.03
2023-03-28T10:34:37.627Z,34.03
2023-03-28T10:37:03.972Z,34.14
2023-03-28T10:39:30.368Z,34.47
2023-03-28T10:41:56.701Z,34.54
2023-03-28T10:44:23.102Z,34.65
2023-03-28T10:46:49.607Z,34.93
2023-03-28T10:49:18.063Z,34.79
2023-03-28T10:51:44.402Z,34.50
2023-03-28T10:54:10.940Z,34.50
2023-03-28T10:56:37.253Z,34.84
2023-03-28T10:59:03.631Z,34.90
2023-03-28T11:01:32.654Z,34.93
2023-03-28T11:03:56.425Z,34.74
2023-03-28T11:06:22.706Z,34.44
2023-03-28T11:08:49.107Z,34.43
2023-03-28T11:11:15.509Z,34.29
2023-03-28T11:13:41.913Z,33.71
2023-03-28T11:16:08.357Z,33.71
2023-03-28T11:18:34.700Z,34.78
2023-03-28T11:21:01.240Z,34.78
2023-03-28T11:23:27.445Z,34.81
2023-03-28T11:25:53.908Z,35.02
2023-03-28T11:28:20.296Z,35.02
2023-03-28T11:30:46.629Z,35.04
2023-03-28T11:33:13.028Z,35.09
2023-03-28T11:35:39.551Z,35.05
2023-03-28T11:38:05.839Z,34.84
2023-03-28T11:40:32.189Z,34.69
2023-03-28T11:42:58.565Z,34.65
2023-03-28T11:45:37.533Z,34.53
2023-03-28T11:47:51.420Z,34.36
2023-03-28T11:50:17.668Z,34.33
2023-03-28T11:52:44.047Z,34.38
2023-03-28T11:55:11.535Z,34.65
2023-03-28T11:57:36.803Z,34.93
2023-03-28T12:00:03.144Z,34.93
2023-03-28T12:02:29.595Z,34.48
2023-03-28T12:04:55.928Z,33.99
2023-03-28T12:07:22.333Z,34.67
2023-03-28T12:09:48.832Z,34.62
2023-03-28T12:12:15.232Z,34.62
2023-03-28T12:14:41.576Z,34.47
2023-03-28T12:17:08.024Z,33.89
2023-03-28T12:19:34.329Z,33.52
2023-03-28T12:22:00.695Z,32.83
2023-03-28T12:24:27.056Z,32.83
2023-03-28T12:26:55.927Z,33.33
2023-03-28T12:29:19.842Z,33.38
2023-03-28T12:31:46.233Z,33.45
2023-03-28T12:34:12.576Z,33.25
2023-03-28T12:36:38.951Z,33.60
2023-03-28T12:39:05.355Z,33.60
2023-03-28T12:41:31.771Z,33.44
2023-03-28T12:43:58.186Z,33.35
2023-03-28T12:46:24.590Z,33.19
2023-03-28T12:48:50.906Z,33.24
2023-03-28T12:51:18.498Z,31.75
2023-03-28T12:53:43.679Z,31.39
2023-03-28T12:56:10.065Z,31.20
2023-03-28T12:58:36.421Z,32.54
2023-03-28T13:01:03.013Z,33.31
2023-03-28T13:03:29.277Z,33.40
2023-03-28T13:05:55.662Z,33.17
2023-03-28T13:08:23.727Z,33.07
2023-03-28T13:10:48.391Z,31.73
2023-03-28T13:13:14.778Z,31.73
2023-03-28T13:15:41.157Z,30.65
2023-03-28T13:18:07.538Z,30.48
2023-03-28T13:20:33.983Z,30.75
2023-03-28T13:23:00.318Z,30.72
2023-03-28T13:25:26.737Z,31.10
2023-03-28T13:27:53.106Z,31.48
2023-03-28T13:30:19.490Z,32.12
2023-03-28T13:32:45.924Z,32.33
2023-03-28T13:35:12.288Z,33.19
2023-03-28T13:37:38.642Z,31.68
2023-03-28T13:40:05.014Z,31.82
2023-03-28T13:42:31.355Z,31.57
2023-03-28T13:44:57.832Z,32.13
2023-03-28T13:47:26.054Z,32.36
2023-03-28T13:49:52.434Z,32.42
2023-03-28T13:52:18.798Z,32.58
2023-03-28T13:54:45.215Z,33.25
2023-03-28T13:57:11.585Z,33.35
2023-03-28T13:59:37.951Z,33.30
2023-03-28T14:02:04.315Z,33.64
2023-03-28T14:04:30.679Z,33.18
2023-03-28T14:06:57.087Z,31.64
2023-03-28T14:09:23.459Z,31.42
2023-03-28T14:11:49.850Z,31.68
2023-03-28T14:14:16.229Z,32.37
2023-03-28T14:16:42.633Z,32.71
2023-03-28T14:19:09.010Z,32.61
2023-03-28T14:21:35.389Z,33.08
2023-03-28T14:24:01.774Z,33.27
2023-03-28T14:26:28.200Z,33.45
2023-03-28T14:28:54.607Z,33.30
2023-03-28T14:31:20.980Z,33.70
2023-03-28T14:33:47.890Z,33.84
2023-03-28T14:36:13.683Z,33.93
2023-03-28T14:38:40.065Z,34.04
2023-03-28T14:41:06.419Z,33.99
2023-03-28T14:43:32.803Z,34.01
2023-03-28T14:45:59.194Z,34.02
2023-03-28T14:48:25.560Z,34.08
2023-03-28T14:50:53.495Z,34.17
2023-03-28T14:53:18.331Z,34.07
2023-03-28T14:55:44.671Z,34.28
2023-03-28T14:58:11.057Z,33.87
2023-03-28T15:00:37.456Z,33.81
2023-03-28T15:03:03.904Z,33.65
2023-03-28T15:05:30.184Z,33.67
2023-03-28T15:07:56.532Z,33.83
2023-03-28T15:10:22.989Z,34.12
2023-03-28T15:12:52.355Z,34.22
2023-03-28T15:15:18.810Z,34.33
2023-03-28T15:17:45.190Z,34.57
2023-03-28T15:20:11.636Z,34.72
2023-03-28T15:22:37.874Z,34.93
2023-03-28T15:25:04.562Z,35.13
2023-03-28T15:27:30.944Z,35.29
2023-03-28T15:29:57.291Z,35.34
2023-03-28T15:32:23.698Z,35.22
2023-03-28T15:34:50.049Z,35.25
2023-03-28T15:37:16.393Z,35.32
2023-03-28T15:39:42.800Z,35.29
2023-03-28T15:42:09.137Z,34.96
2023-03-28T15:44:35.525Z,34.56
2023-03-28T15:47:01.879Z,34.46
2023-03-28T15:49:28.279Z,34.30
2023-03-28T15:51:54.616Z,34.22
2023-03-28T15:54:30.711Z,34.11
2023-03-28T15:56:47.372Z,34.24
2023-03-28T15:59:13.719Z,35.07
2023-03-28T16:01:40.119Z,35.07
2023-03-28T16:04:06.525Z,35.06
2023-03-28T16:06:35.023Z,35.10
2023-03-28T16:08:59.216Z,35.27
2023-03-28T16:11:25.590Z,35.18
2023-03-28T16:13:51.964Z,34.99
2023-03-28T16:16:18.847Z,35.07
2023-03-28T16:18:44.755Z,35.05
2023-03-28T16:21:11.106Z,34.89
2023-03-28T16:26:03.833Z,34.86
2023-03-28T16:28:30.232Z,35.08
2023-03-28T16:30:56.562Z,34.75
2023-03-28T16:33:22.982Z,34.55
2023-03-28T16:35:49.383Z,34.34
2023-03-28T16:38:15.702Z,34.09
2023-03-28T16:40:42.046Z,33.95
2023-03-28T16:43:08.444Z,33.94
2023-03-28T16:45:34.795Z,34.11
2023-03-28T16:48:01.215Z,34.18
2023-03-28T16:50:27.518Z,34.25
2023-03-28T16:52:53.913Z,34.28
2023-03-28T16:55:20.433Z,34.18
2023-03-28T16:57:46.687Z,34.18
2023-03-28T17:00:13.001Z,34.20
2023-03-28T17:02:39.549Z,34.20
2023-03-28T17:05:05.744Z,34.53
2023-03-28T17:07:32.129Z,34.41
2023-03-28T17:09:58.497Z,34.35
2023-03-28T17:12:24.903Z,34.21
2023-03-28T17:14:51.264Z,33.54
2023-03-28T17:17:17.660Z,33.54
2023-03-28T17:19:43.979Z,33.91
2023-03-28T17:22:10.392Z,33.69
2023-03-28T17:24:36.760Z,33.87
2023-03-28T17:27:03.135Z,33.77
2023-03-28T17:29:29.485Z,33.93
2023-03-28T17:31:55.868Z,34.08
2023-03-28T17:34:22.221Z,33.91
2023-03-28T17:36:48.617Z,33.91
2023-03-28T17:39:14.982Z,34.12
2023-03-28T17:41:41.412Z,34.58
2023-03-28T17:44:07.744Z,34.58
2023-03-28T17:46:34.182Z,34.52
2023-03-28T17:49:00.475Z,34.52
2023-03-28T17:51:26.899Z,33.88
2023-03-28T17:53:53.213Z,33.88
2023-03-28T17:56:19.604Z,33.86
2023-03-28T17:58:45.980Z,33.46
2023-03-28T18:01:12.456Z,33.46
2023-03-28T18:03:38.993Z,33.80
2023-03-28T18:06:05.188Z,33.61
2023-03-28T18:08:31.597Z,33.83
2023-03-28T18:10:57.975Z,33.83
2023-03-28T18:13:24.319Z,34.06
2023-03-28T18:15:50.741Z,34.03
2023-03-28T18:18:17.046Z,34.04
2023-03-28T18:20:43.439Z,34.05
2023-03-28T18:23:09.790Z,34.02
2023-03-28T18:25:36.160Z,34.09
2023-03-28T18:28:02.506Z,34.20
2023-03-28T18:30:28.892Z,34.33
2023-03-28T18:32:55.363Z,34.33
2023-03-28T18:35:21.690Z,34.21
2023-03-28T18:37:48.038Z,34.16
2023-03-28T18:40:14.493Z,34.14
2023-03-28T18:42:40.806Z,34.03
2023-03-28T18:45:07.199Z,34.03
2023-03-28T18:47:33.607Z,34.17
2023-03-28T18:49:59.957Z,34.20
2023-03-28T18:52:27.696Z,34.21
2023-03-28T18:54:52.721Z,34.19
2023-03-28T18:57:19.113Z,34.38
2023-03-28T18:59:45.459Z,34.56
2023-03-28T19:02:11.827Z,34.56
2023-03-28T19:04:38.186Z,34.25
2023-03-28T19:07:04.533Z,34.29
2023-03-28T19:09:30.955Z,34.31
2023-03-28T19:11:57.309Z,34.37
2023-03-28T19:14:23.707Z,34.38
2023-03-28T19:16:50.098Z,34.44
2023-03-28T19:19:16.453Z,34.48
2023-03-28T19:21:42.792Z,34.57
2023-03-28T19:24:09.203Z,34.49
2023-03-28T19:26:35.557Z,34.58
2023-03-28T19:29:01.944Z,34.71
2023-03-28T19:31:28.292Z,34.66
2023-03-28T19:33:54.692Z,34.79
2023-03-28T19:36:21.167Z,34.87
2023-03-28T19:38:47.481Z,34.85
2023-03-28T19:41:15.722Z,35.02
2023-03-28T19:43:40.248Z,35.05
2023-03-28T19:46:06.596Z,35.12
2023-03-28T19:48:32.961Z,35.18
2023-03-28T19:50:59.318Z,35.26
2023-03-28T19:53:25.719Z,35.24
2023-03-28T19:55:52.071Z,35.21
2023-03-28T19:58:18.446Z,35.69
2023-03-28T20:00:44.794Z,35.69
2023-03-28T20:03:11.230Z,35.50
2023-03-28T20:05:37.545Z,35.43
2023-03-28T20:08:03.935Z,35.49
2023-03-28T20:10:30.301Z,35.56
2023-03-28T20:12:56.694Z,35.56
2023-03-28T20:15:23.035Z,35.56
2023-03-28T20:17:49.459Z,35.63
2023-03-28T20:20:17.077Z,35.61
2023-03-28T20:22:42.181Z,35.58
2023-03-28T20:25:08.523Z,35.57
2023-03-28T20:27:34.910Z,35.64
2023-03-28T20:30:01.255Z,35.71
2023-03-28T20:32:27.661Z,35.65
2023-03-28T20:34:53.990Z,35.77
2023-03-28T20:37:20.390Z,35.75
2023-03-28T20:39:46.731Z,35.77
2023-03-28T20:42:13.136Z,35.85
2023-03-28T20:44:39.509Z,35.83
2023-03-28T20:47:05.978Z,35.76
2023-03-28T20:49:32.258Z,35.89
2023-03-28T20:51:58.655Z,35.81
2023-03-28T20:54:25.009Z,35.94
2023-03-28T20:56:51.468Z,35.84
2023-03-28T20:59:17.749Z,35.92
2023-03-28T21:01:44.149Z,36.00
2023-03-28T21:04:10.508Z,35.87
2023-03-28T21:06:36.910Z,35.89
2023-03-28T21:09:03.261Z,35.90
2023-03-28T21:11:29.696Z,35.83
2023-03-28T21:13:56.083Z,35.90
2023-03-28T21:16:22.509Z,35.93
2023-03-28T21:18:48.914Z,35.93
2023-03-28T21:21:15.314Z,35.97
2023-03-28T21:23:41.681Z,35.98
2023-03-28T21:26:08.087Z,36.01
2023-03-28T21:28:34.455Z,35.95
2023-03-28T21:31:01.040Z,35.99
2023-03-28T21:33:27.262Z,36.00
2023-03-28T21:35:53.642Z,36.01
2023-03-28T21:38:19.987Z,36.00
2023-03-28T21:40:46.420Z,36.04
2023-03-28T21:43:12.755Z,36.07
2023-03-28T21:45:39.186Z,36.05
2023-03-28T21:48:05.520Z,36.08
2023-03-28T21:50:31.905Z,36.08
2023-03-28T21:52:58.256Z,36.09
2023-03-28T21:55:24.665Z,36.05
2023-03-28T21:57:51.017Z,36.10
2023-03-28T22:00:17.424Z,36.05
2023-03-28T22:02:43.869Z,36.14
2023-03-28T22:05:22.028Z,36.14
2023-03-28T22:07:36.559Z,36.08
2023-03-28T22:10:02.968Z,36.13
2023-03-28T22:12:29.321Z,36.14
2023-03-28T22:14:55.885Z,36.10
2023-03-28T22:17:22.238Z,36.03
2023-03-28T22:19:48.637Z,36.02
2023-03-28T22:22:14.993Z,36.00
2023-03-28T22:24:41.386Z,35.94
2023-03-28T22:27:07.743Z,35.97
2023-03-28T22:29:34.145Z,35.93
2023-03-28T22:32:00.494Z,35.89
2023-03-28T22:34:26.887Z,35.86
2023-03-28T22:36:53.275Z,35.84
2023-03-28T22:39:19.666Z,35.85
2023-03-28T22:41:46.102Z,35.85
2023-03-28T22:44:12.478Z,35.87
2023-03-28T22:46:38.957Z,35.86
2023-03-28T22:49:05.291Z,35.88
2023-03-28T22:51:31.642Z,35.87
2023-03-28T22:53:58.046Z,35.88
2023-03-28T22:56:24.505Z,35.89
2023-03-28T22:58:50.823Z,35.88
2023-03-28T23:01:17.211Z,35.93
2023-03-28T23:03:43.577Z,35.81
2023-03-28T23:06:09.930Z,35.85
2023-03-28T23:08:36.337Z,35.85
2023-03-28T23:11:02.924Z,35.85
2023-03-28T23:13:29.100Z,35.83
2023-03-28T23:15:55.572Z,35.86
2023-03-28T23:18:21.870Z,35.78
2023-03-28T23:20:48.207Z,35.81
2023-03-28T23:23:14.681Z,35.80
2023-03-28T23:25:40.989Z,35.81
2023-03-28T23:28:07.400Z,35.78
2023-03-28T23:30:33.843Z,35.76
2023-03-28T23:33:00.327Z,35.79
2023-03-28T23:35:26.618Z,35.80
2023-03-28T23:37:53.059Z,35.79
2023-03-28T23:40:19.392Z,35.80
2023-03-28T23:42:45.821Z,35.77
2023-03-28T23:45:12.213Z,35.75
2023-03-28T23:47:38.640Z,35.77
2023-03-28T23:50:04.954Z,35.80
2023-03-28T23:52:31.367Z,35.81
2023-03-28T23:54:58.629Z,35.81
2023-03-28T23:57:25.173Z,35.79
2023-03-28T23:59:51.376Z,35.80
